createdAt,value
2019-04-23T00:00:54.505Z,64.32
2019-04-23T00:03:30.221Z,64.18
2019-04-23T00:06:07.165Z,64.38
2019-04-23T00:08:36.225Z,65.04
2019-04-23T00:11:05.848Z,65.23
2019-04-23T00:13:37.428Z,64.70
2019-04-23T00:16:14.080Z,64.22
2019-04-23T00:21:23.574Z,63.50
2019-04-23T00:23:53.340Z,63.17
2019-04-23T00:29:00.997Z,63.19
2019-04-23T00:31:31.655Z,64.35
2019-04-23T00:34:04.162Z,64.46
2019-04-23T00:36:45.968Z,64.03
2019-04-23T00:39:06.308Z,63.42
2019-04-23T00:41:39.072Z,63.66
2019-04-23T00:44:20.758Z,63.41
2019-04-23T00:46:40.107Z,63.38
2019-04-23T00:49:15.626Z,63.99
2019-04-23T00:51:42.478Z,64.47
2019-04-23T00:54:20.754Z,64.44
2019-04-23T00:59:24.503Z,64.64
2019-04-23T01:04:27.548Z,64.03
2019-04-23T01:06:58.047Z,64.58
2019-04-23T01:09:38.665Z,65.60
2019-04-23T01:12:06.046Z,66.87
2019-04-23T01:14:34.652Z,65.67
2019-04-23T01:17:17.277Z,65.24
2019-04-23T01:19:51.799Z,65.33
2019-04-23T01:22:02.164Z,65.37
2019-04-23T01:24:52.282Z,66.90
2019-04-23T01:28:04.417Z,66.32
2019-04-23T01:30:19.741Z,65.98
2019-04-23T01:32:54.646Z,65.60
2019-04-23T01:35:56.946Z,65.36
2019-04-23T01:38:11.917Z,65.71
2019-04-23T01:40:36.539Z,65.87
2019-04-23T01:43:05.495Z,66.08
2019-04-23T01:45:31.037Z,66.22
2019-04-23T01:48:04.654Z,66.24
2019-04-23T01:50:43.448Z,65.68
2019-04-23T01:55:47.280Z,64.09
2019-04-23T02:03:24.554Z,67.66
2019-04-23T02:08:26.312Z,68.00
2019-04-23T02:11:11.479Z,67.98
2019-04-23T02:13:36.898Z,66.62
2019-04-23T02:16:05.173Z,65.81
2019-04-23T02:18:37.319Z,64.90
2019-04-23T02:21:10.615Z,66.09
2019-04-23T02:23:43.900Z,66.44
2019-04-23T02:26:24.385Z,65.85
2019-04-23T02:29:14.684Z,66.79
2019-04-23T02:31:53.095Z,64.94
2019-04-23T02:34:00.483Z,64.97
2019-04-23T02:44:19.825Z,65.79
2019-04-23T02:46:43.815Z,66.01
2019-04-23T02:49:18.202Z,66.33
2019-04-23T02:59:30.787Z,65.23
2019-04-23T03:04:47.758Z,65.68
2019-04-23T03:07:03.354Z,65.67
2019-04-23T03:09:36.438Z,66.04
2019-04-23T03:12:08.270Z,66.08
2019-04-23T03:14:46.264Z,65.72
2019-04-23T03:17:13.262Z,65.36
2019-04-23T03:19:59.368Z,66.27
2019-04-23T03:22:37.790Z,65.35
2019-04-23T03:27:37.245Z,65.47
2019-04-23T03:30:16.719Z,64.70
2019-04-23T03:33:08.428Z,62.58
2019-04-23T03:35:19.459Z,63.29
2019-04-23T03:37:46.334Z,64.04
2019-04-23T03:43:02.356Z,62.22
2019-04-23T03:45:46.500Z,60.96
2019-04-23T03:47:56.237Z,58.87
2019-04-23T03:52:57.273Z,59.39
2019-04-23T03:55:37.413Z,60.58
2019-04-23T03:58:14.360Z,58.70
2019-04-23T04:03:27.755Z,58.40
2019-04-23T04:11:09.905Z,57.91
2019-04-23T04:13:30.403Z,56.96
2019-04-23T04:18:38.523Z,57.53
2019-04-23T04:23:39.586Z,58.12
2019-04-23T04:26:05.247Z,57.32
2019-04-23T04:28:51.460Z,56.65
2019-04-23T04:31:05.814Z,56.40
2019-04-23T04:34:03.510Z,51.62
2019-04-23T04:36:20.867Z,52.16
2019-04-23T04:41:40.015Z,51.79
2019-04-23T04:44:23.145Z,51.16
2019-04-23T04:48:55.762Z,51.66
2019-04-23T04:51:37.683Z,51.28
2019-04-23T05:01:28.572Z,46.05
2019-04-23T05:04:14.589Z,46.31
2019-04-23T05:06:43.839Z,45.14
2019-04-23T05:09:34.828Z,43.04
2019-04-23T05:11:54.133Z,42.15
2019-04-23T05:14:13.081Z,42.28
2019-04-23T05:19:29.036Z,41.82
2019-04-23T05:21:54.463Z,41.06
2019-04-23T05:24:21.776Z,39.15
2019-04-23T05:26:48.212Z,40.18
2019-04-23T05:29:20.049Z,38.67
2019-04-23T05:31:54.306Z,37.30
2019-04-23T05:34:27.302Z,37.29
2019-04-23T05:37:00.127Z,36.60
2019-04-23T05:39:36.845Z,36.13
2019-04-23T05:42:04.312Z,36.61
2019-04-23T05:47:17.190Z,36.56
2019-04-23T05:49:47.583Z,36.93
2019-04-23T05:52:19.052Z,37.48
2019-04-23T05:54:49.928Z,37.47
2019-04-23T05:57:14.337Z,37.50
2019-04-23T06:02:26.161Z,38.68
2019-04-23T06:05:02.114Z,38.42
2019-04-23T06:07:35.891Z,38.33
2019-04-23T06:12:31.976Z,37.16
2019-04-23T06:15:05.146Z,37.08
2019-04-23T06:17:43.101Z,38.09
2019-04-23T06:20:10.254Z,37.08
2019-04-23T06:22:42.380Z,35.76
2019-04-23T06:25:35.911Z,34.20
2019-04-23T06:27:57.444Z,34.28
2019-04-23T06:30:26.644Z,32.25
2019-04-23T06:33:02.369Z,31.97
2019-04-23T06:35:32.021Z,31.97
2019-04-23T06:38:34.424Z,29.87
2019-04-23T06:40:38.220Z,33.31
2019-04-23T06:43:11.710Z,28.99
2019-04-23T06:46:01.375Z,25.98
2019-04-23T06:53:21.371Z,25.66
2019-04-23T06:55:59.864Z,23.33
2019-04-23T07:01:00.740Z,22.75
2019-04-23T07:11:23.470Z,23.69
2019-04-23T07:16:14.670Z,24.65
2019-04-23T07:18:46.900Z,23.44
2019-04-23T07:26:33.283Z,22.77
2019-04-23T07:34:01.389Z,20.40
2019-04-23T07:36:38.247Z,19.37
2019-04-23T07:39:06.045Z,18.90
2019-04-23T07:42:03.295Z,20.10
2019-04-23T07:47:15.786Z,19.69
2019-04-23T07:49:43.817Z,24.16
2019-04-23T07:52:27.658Z,18.29
2019-04-23T07:57:13.469Z,20.19
2019-04-23T07:59:48.593Z,18.62
2019-04-23T08:02:24.188Z,18.73
2019-04-23T08:07:28.252Z,19.35
2019-04-23T08:10:02.314Z,19.99
2019-04-23T08:12:42.459Z,20.33
2019-04-23T08:15:18.186Z,20.18
2019-04-23T08:17:42.253Z,19.20
2019-04-23T08:20:19.402Z,19.34
2019-04-23T08:22:45.803Z,20.74
2019-04-23T08:28:12.033Z,18.62
2019-04-23T08:30:32.692Z,17.97
2019-04-23T08:33:24.068Z,18.35
2019-04-23T08:35:48.675Z,19.01
2019-04-23T08:38:26.608Z,18.53
2019-04-23T08:41:06.105Z,17.60
2019-04-23T08:43:41.079Z,18.54
2019-04-23T08:46:21.189Z,18.18
2019-04-23T08:48:58.677Z,18.78
2019-04-23T08:54:11.740Z,18.28
2019-04-23T08:56:40.660Z,16.62
2019-04-23T08:59:25.173Z,17.69
2019-04-23T09:05:21.160Z,17.20
2019-04-23T09:37:56.073Z,17.83
2019-04-23T12:57:29.763Z,15.53
2019-04-23T14:14:16.748Z,16.70
2019-04-23T14:19:13.003Z,18.96
2019-04-23T14:21:44.570Z,17.22
2019-04-23T14:24:26.820Z,16.90
2019-04-23T14:26:46.327Z,17.34
2019-04-23T14:29:31.788Z,17.32
2019-04-23T14:32:04.549Z,17.55
2019-04-23T14:34:24.911Z,18.48
2019-04-23T14:37:09.216Z,18.42
2019-04-23T14:39:40.781Z,18.83
2019-04-23T14:42:33.663Z,19.54
2019-04-23T14:44:52.441Z,19.21
2019-04-23T14:50:14.629Z,19.08
2019-04-23T14:52:30.899Z,20.20
2019-04-23T14:57:45.331Z,19.54
2019-04-23T15:00:08.799Z,19.83
2019-04-23T15:02:48.269Z,20.08
2019-04-23T15:05:17.354Z,20.23
2019-04-23T15:07:46.251Z,20.16
2019-04-23T15:10:24.808Z,20.91
2019-04-23T15:12:53.922Z,20.54
2019-04-23T15:15:19.673Z,20.92
2019-04-23T15:18:01.824Z,20.46
2019-04-23T15:20:30.648Z,19.77
2019-04-23T15:30:38.781Z,20.10
2019-04-23T15:33:23.183Z,19.68
2019-04-23T15:35:57.879Z,19.39
2019-04-23T15:39:11.697Z,20.58
2019-04-23T15:40:56.680Z,20.18
2019-04-23T15:43:57.157Z,21.32
2019-04-23T15:50:07.394Z,20.07
2019-04-23T15:52:33.333Z,20.68
2019-04-23T15:55:05.556Z,20.57
2019-04-23T16:00:13.231Z,19.89
2019-04-23T16:02:23.980Z,21.19
2019-04-23T16:04:56.153Z,20.12
2019-04-23T16:07:50.515Z,21.58
2019-04-23T16:10:37.760Z,21.33
2019-04-23T16:13:30.963Z,22.04
2019-04-23T16:15:54.759Z,22.73
2019-04-23T16:21:41.134Z,24.95
2019-04-23T16:24:07.208Z,25.88
2019-04-23T16:32:52.609Z,29.24
2019-04-23T16:39:44.053Z,31.04
2019-04-23T17:28:18.316Z,41.48
2019-04-23T17:34:54.660Z,43.20
2019-04-23T17:38:09.128Z,43.45
2019-04-23T17:42:09.208Z,44.99
2019-04-23T17:45:30.968Z,42.69
2019-04-23T17:48:34.985Z,43.87
2019-04-23T17:51:28.143Z,44.68
2019-04-23T17:54:26.927Z,44.29
2019-04-23T17:57:28.416Z,45.64
2019-04-23T18:05:18.263Z,46.62
2019-04-23T18:25:02.738Z,47.44
2019-04-23T18:27:23.610Z,47.20
2019-04-23T18:30:07.944Z,47.50
2019-04-23T18:32:44.770Z,48.11
2019-04-23T18:40:19.993Z,44.84
2019-04-23T18:43:21.543Z,45.11
2019-04-23T18:45:39.585Z,45.74
2019-04-23T18:48:38.841Z,42.50
2019-04-23T18:53:45.389Z,41.29
2019-04-23T18:56:12.683Z,39.78
2019-04-23T19:06:29.625Z,35.58
2019-04-23T19:09:32.467Z,33.49
2019-04-23T19:12:03.460Z,33.69
2019-04-23T19:14:35.300Z,32.83
2019-04-23T19:19:33.595Z,31.32
2019-04-23T19:24:31.742Z,31.41
2019-04-23T19:29:44.382Z,30.62
2019-04-23T19:32:00.592Z,30.66
2019-04-23T19:34:43.889Z,31.24
2019-04-23T19:37:24.179Z,30.92
2019-04-23T19:42:18.027Z,30.86
2019-04-23T19:44:47.477Z,30.50
2019-04-23T19:49:58.923Z,30.70
2019-04-23T19:52:52.094Z,30.49
2019-04-23T19:55:11.461Z,30.21
2019-04-23T19:57:56.555Z,30.95
2019-04-23T20:00:01.214Z,31.06
2019-04-23T20:03:01.596Z,32.13
2019-04-23T20:05:17.197Z,30.97
2019-04-23T20:07:56.502Z,31.11
2019-04-23T20:10:17.502Z,31.14
2019-04-23T20:12:46.035Z,31.53
2019-04-23T20:15:30.926Z,31.28
2019-04-23T20:18:05.328Z,31.42
2019-04-23T20:20:35.425Z,32.06
2019-04-23T20:22:55.469Z,31.11
2019-04-23T20:26:03.201Z,31.42
2019-04-23T20:28:33.659Z,30.85
2019-04-23T20:31:16.468Z,30.59
2019-04-23T20:36:12.160Z,31.76
2019-04-23T20:38:41.088Z,30.96
2019-04-23T20:41:11.839Z,30.85
2019-04-23T20:43:50.457Z,30.62
2019-04-23T20:46:14.394Z,30.97
2019-04-23T20:48:58.987Z,31.00
2019-04-23T20:51:24.528Z,31.09
2019-04-23T20:53:59.793Z,31.32
2019-04-23T20:56:34.425Z,31.65
2019-04-23T20:58:59.697Z,31.10
2019-04-23T21:01:41.830Z,31.08
2019-04-23T21:04:18.684Z,32.50
2019-04-23T21:06:46.746Z,32.25
2019-04-23T21:11:53.091Z,30.88
2019-04-23T21:14:31.317Z,32.49
2019-04-23T21:19:25.118Z,30.53
2019-04-23T21:22:13.235Z,32.00
2019-04-23T21:24:42.327Z,30.53
2019-04-23T21:27:38.558Z,32.65
2019-04-23T21:35:07.996Z,31.32
2019-04-23T21:37:51.249Z,31.10
2019-04-23T21:40:40.578Z,32.24
2019-04-23T21:45:30.558Z,31.66
2019-04-23T21:50:36.731Z,34.90
2019-04-23T21:52:59.492Z,33.56
2019-04-23T21:55:48.617Z,31.77
2019-04-23T22:00:51.946Z,37.50
2019-04-23T22:03:24.620Z,36.38
2019-04-23T22:08:39.211Z,35.73
2019-04-23T22:11:32.721Z,34.43
2019-04-23T22:13:53.841Z,35.78
2019-04-23T22:16:14.694Z,34.10
2019-04-23T22:18:58.784Z,33.60
2019-04-23T22:21:28.934Z,35.82
2019-04-23T22:23:58.244Z,37.83
2019-04-23T22:26:28.456Z,37.60
2019-04-23T22:31:29.107Z,37.27
2019-04-23T22:36:29.387Z,38.67
2019-04-23T22:39:07.844Z,39.33
2019-04-23T22:44:12.509Z,40.20
2019-04-23T22:46:53.267Z,41.25
2019-04-23T22:49:22.913Z,40.60
2019-04-23T22:54:13.889Z,42.51
2019-04-23T22:56:59.232Z,42.84
2019-04-23T23:01:59.144Z,42.57
2019-04-23T23:04:28.633Z,39.74
2019-04-23T23:07:01.639Z,38.34
2019-04-23T23:09:49.243Z,40.54
2019-04-23T23:12:02.617Z,40.04
2019-04-23T23:14:35.180Z,38.71
2019-04-23T23:17:11.544Z,39.69
2019-04-23T23:19:54.350Z,40.24
2019-04-23T23:22:27.786Z,39.31
2019-04-23T23:24:48.399Z,41.30
2019-04-23T23:27:15.150Z,41.20
2019-04-23T23:30:01.194Z,41.10
2019-04-23T23:32:23.191Z,41.29
2019-04-23T23:35:08.932Z,41.50
2019-04-23T23:37:28.439Z,41.37
2019-04-23T23:40:04.976Z,41.84
2019-04-23T23:42:35.120Z,42.49
2019-04-23T23:45:12.833Z,42.88
2019-04-23T23:47:38.108Z,41.03
2019-04-23T23:50:25.529Z,42.19
2019-04-23T23:52:51.765Z,39.88
2019-04-23T23:55:15.784Z,40.78
2019-04-23T23:57:50.961Z,39.38
